createdAt,value
2019-02-12T00:01:32.280Z,10.18
2019-02-12T00:04:24.103Z,10.25
2019-02-12T00:09:58.190Z,10.16
2019-02-12T00:15:51.647Z,10.12
2019-02-12T00:27:44.529Z,10.01
2019-02-12T00:30:40.385Z,10.29
2019-02-12T00:33:48.956Z,10.22
2019-02-12T00:36:20.600Z,10.19
2019-02-12T00:39:32.311Z,10.39
2019-02-12T00:45:50.981Z,10.33
2019-02-12T00:48:24.663Z,10.12
2019-02-12T00:50:55.461Z,9.97
2019-02-12T00:56:28.860Z,10.32
2019-02-12T00:58:59.804Z,10.72
2019-02-12T01:01:31.439Z,10.67
2019-02-12T01:04:22.221Z,10.74
2019-02-12T01:06:53.126Z,10.73
2019-02-12T01:09:24.896Z,11.14
2019-02-12T01:12:14.788Z,11.29
2019-02-12T01:20:13.007Z,11.48
2019-02-12T01:22:43.911Z,11.14
2019-02-12T01:25:34.647Z,10.93
2019-02-12T01:28:05.464Z,11.08
2019-02-12T01:30:37.198Z,11.25
2019-02-12T01:33:28.732Z,11.29
2019-02-12T01:36:00.319Z,11.41
2019-02-12T01:38:31.396Z,11.52
2019-02-12T01:41:22.366Z,11.43
2019-02-12T01:43:53.419Z,11.55
2019-02-12T01:46:25.027Z,11.39
2019-02-12T01:49:15.090Z,11.26
2019-02-12T01:51:46.705Z,11.03
2019-02-12T01:54:36.827Z,10.73
2019-02-12T01:57:08.490Z,10.73
2019-02-12T01:59:40.226Z,10.79
2019-02-12T02:05:23.495Z,10.69
2019-02-12T02:07:54.372Z,10.83
2019-02-12T02:16:40.094Z,10.63
2019-02-12T02:22:50.968Z,10.58
2019-02-12T02:25:51.919Z,10.58
2019-02-12T02:31:31.258Z,10.76
2019-02-12T02:37:35.765Z,11.18
2019-02-12T02:40:29.990Z,11.26
2019-02-12T02:43:05.853Z,11.41
2019-02-12T02:46:06.107Z,11.47
2019-02-12T02:48:39.457Z,11.33
2019-02-12T02:51:33.301Z,11.56
2019-02-12T03:00:28.680Z,11.87
2019-02-12T03:03:22.025Z,11.78
2019-02-12T03:05:54.944Z,11.76
2019-02-12T03:08:37.862Z,11.88
2019-02-12T03:17:37.124Z,11.65
2019-02-12T03:20:29.213Z,11.72
2019-02-12T03:23:00.959Z,11.71
2019-02-12T03:31:42.230Z,11.96
2019-02-12T03:34:32.145Z,11.70
2019-02-12T03:40:08.459Z,11.98
2019-02-12T03:46:10.512Z,11.91
2019-02-12T03:55:29.855Z,12.00
2019-02-12T03:58:32.002Z,12.13
2019-02-12T04:01:22.715Z,11.85
2019-02-12T04:03:53.827Z,11.84
2019-02-12T04:06:26.691Z,11.82
2019-02-12T04:09:17.516Z,11.75
2019-02-12T04:11:48.887Z,11.83
2019-02-12T04:17:11.206Z,12.10
2019-02-12T04:19:42.818Z,11.83
2019-02-12T04:22:32.490Z,11.67
2019-02-12T04:25:03.680Z,11.44
2019-02-12T04:27:35.418Z,11.35
2019-02-12T04:30:44.388Z,11.38
2019-02-12T04:33:34.901Z,11.27
2019-02-12T04:36:39.114Z,11.32
2019-02-12T04:39:02.165Z,11.46
2019-02-12T04:42:12.466Z,11.27
2019-02-12T04:44:43.455Z,11.13
2019-02-12T04:47:34.269Z,11.00
2019-02-12T04:50:06.431Z,10.81
2019-02-12T04:55:39.786Z,10.53
2019-02-12T04:58:29.758Z,10.69
2019-02-12T05:01:00.646Z,10.71
2019-02-12T05:03:32.020Z,10.70
2019-02-12T05:09:37.240Z,10.67
2019-02-12T05:12:18.375Z,10.77
2019-02-12T05:14:49.072Z,11.09
2019-02-12T05:20:22.806Z,11.33
2019-02-12T05:22:53.725Z,11.26
2019-02-12T05:25:44.548Z,11.04
2019-02-12T05:28:16.220Z,11.04
2019-02-12T05:30:47.847Z,10.94
2019-02-12T05:33:18.699Z,10.68
2019-02-12T05:39:11.604Z,10.95
2019-02-12T05:41:42.368Z,10.79
2019-02-12T05:47:06.893Z,10.84
2019-02-12T05:49:57.062Z,10.90
2019-02-12T05:52:28.056Z,10.67
2019-02-12T05:55:18.684Z,10.80
2019-02-12T05:57:49.366Z,10.77
2019-02-12T06:03:06.204Z,10.94
2019-02-12T06:12:08.836Z,10.55
2019-02-12T06:15:00.694Z,10.57
2019-02-12T06:17:51.400Z,10.67
2019-02-12T06:20:23.264Z,10.88
2019-02-12T06:23:03.026Z,10.92
2019-02-12T06:28:28.245Z,10.95
2019-02-12T06:31:37.282Z,11.19
2019-02-12T06:34:27.152Z,10.91
2019-02-12T06:40:02.747Z,11.09
2019-02-12T06:42:34.449Z,11.05
2019-02-12T06:45:11.710Z,11.17
2019-02-12T06:50:26.150Z,11.37
2019-02-12T06:52:56.928Z,11.21
2019-02-12T06:55:28.665Z,11.13
2019-02-12T06:57:59.510Z,11.03
2019-02-12T07:00:31.203Z,10.94
2019-02-12T07:07:41.643Z,10.99
2019-02-12T07:10:45.493Z,11.08
2019-02-12T07:13:54.385Z,11.48
2019-02-12T07:17:00.618Z,11.08
2019-02-12T07:19:54.603Z,11.36
2019-02-12T07:23:04.478Z,11.33
2019-02-12T07:26:13.419Z,11.34
2019-02-12T07:29:22.420Z,11.34
2019-02-12T07:32:41.813Z,11.59
2019-02-12T07:38:58.183Z,11.37
2019-02-12T07:42:09.042Z,11.47
2019-02-12T07:45:18.862Z,11.45
2019-02-12T07:48:28.708Z,11.68
2019-02-12T07:51:28.326Z,11.98
2019-02-12T07:54:37.274Z,11.89
2019-02-12T07:58:07.831Z,11.88
2019-02-12T08:01:17.617Z,11.90
2019-02-12T08:04:27.455Z,11.72
2019-02-12T08:07:37.291Z,11.79
2019-02-12T08:10:46.451Z,11.93
2019-02-12T08:13:55.352Z,12.06
2019-02-12T08:16:49.001Z,11.97
2019-02-12T08:19:58.159Z,12.15
2019-02-12T08:23:20.925Z,12.33
2019-02-12T08:26:18.598Z,12.53
2019-02-12T08:29:28.242Z,12.47
2019-02-12T08:32:20.431Z,12.47
2019-02-12T08:35:33.572Z,12.46
2019-02-12T08:38:38.347Z,12.48
2019-02-12T08:41:48.209Z,12.55
2019-02-12T08:44:58.225Z,12.56
2019-02-12T08:48:09.331Z,12.46
2019-02-12T08:51:32.906Z,12.57
2019-02-12T08:54:32.510Z,12.69
2019-02-12T08:57:34.642Z,12.56
2019-02-12T09:04:20.006Z,13.10
2019-02-12T09:07:22.219Z,13.29
2019-02-12T09:10:31.185Z,13.42
2019-02-12T09:16:27.112Z,13.56
2019-02-12T09:19:36.158Z,13.33
2019-02-12T09:22:46.856Z,13.40
2019-02-12T09:29:03.921Z,13.71
2019-02-12T09:32:12.802Z,13.78
2019-02-12T09:38:17.986Z,13.25
2019-02-12T09:41:45.747Z,13.28
2019-02-12T09:44:56.828Z,13.36
2019-02-12T09:48:06.556Z,13.16
2019-02-12T09:51:14.569Z,13.26
2019-02-12T09:54:37.193Z,13.53
2019-02-12T09:57:36.631Z,13.53
2019-02-12T10:00:48.697Z,13.92
2019-02-12T10:03:57.602Z,14.22
2019-02-12T10:06:55.872Z,14.39
2019-02-12T10:10:04.661Z,14.66
2019-02-12T10:13:13.488Z,14.66
2019-02-12T10:16:22.311Z,14.60
2019-02-12T10:19:31.288Z,14.30
2019-02-12T10:22:43.667Z,14.36
2019-02-12T10:25:52.558Z,14.37
2019-02-12T10:29:21.116Z,13.85
2019-02-12T10:32:11.155Z,13.70
2019-02-12T10:34:42.999Z,13.32
2019-02-12T10:37:14.697Z,13.19
2019-02-12T10:40:07.149Z,13.25
2019-02-12T10:42:38.068Z,13.59
2019-02-12T10:45:28.895Z,13.52
2019-02-12T10:48:02.717Z,13.59
2019-02-12T10:57:08.417Z,14.69
2019-02-12T11:03:02.372Z,14.79
2019-02-12T11:05:34.225Z,14.94
2019-02-12T11:08:42.876Z,14.92
2019-02-12T11:18:09.258Z,15.42
2019-02-12T11:20:59.312Z,15.64
2019-02-12T11:23:50.100Z,15.49
2019-02-12T11:26:40.041Z,15.45
2019-02-12T11:32:45.428Z,15.46
2019-02-12T11:35:19.861Z,15.33
2019-02-12T11:38:29.367Z,15.32
2019-02-12T11:53:45.864Z,15.82
2019-02-12T11:56:35.779Z,15.74
2019-02-12T12:05:17.764Z,16.16
2019-02-12T12:08:07.528Z,16.23
2019-02-12T12:14:11.742Z,16.04
2019-02-12T12:20:05.506Z,16.65
2019-02-12T12:25:59.098Z,16.83
2019-02-12T12:28:22.304Z,16.37
2019-02-12T12:31:12.876Z,16.27
2019-02-12T12:33:44.530Z,16.43
2019-02-12T12:36:34.113Z,16.50
2019-02-12T12:39:24.078Z,16.51
2019-02-12T12:42:25.973Z,16.63
2019-02-12T12:51:35.767Z,16.81
2019-02-12T12:54:28.514Z,16.71
2019-02-12T12:56:59.346Z,16.63
2019-02-12T13:00:09.486Z,16.36
2019-02-12T13:02:42.184Z,16.46
2019-02-12T13:05:33.608Z,16.60
2019-02-12T13:08:24.358Z,16.72
2019-02-12T13:10:55.243Z,16.68
2019-02-12T13:13:41.800Z,16.55
2019-02-12T13:16:03.462Z,16.50
2019-02-12T13:18:34.333Z,16.58
2019-02-12T13:21:26.652Z,16.73
2019-02-12T13:29:41.053Z,16.89
2019-02-12T13:32:11.917Z,16.98
2019-02-12T13:35:05.600Z,17.10
2019-02-12T13:40:53.085Z,16.78
2019-02-12T13:43:12.398Z,17.02
2019-02-12T13:48:43.901Z,16.33
2019-02-12T13:51:16.796Z,15.78
2019-02-12T13:53:47.782Z,15.65
2019-02-12T13:56:39.818Z,15.85
2019-02-12T13:59:33.806Z,16.23
2019-02-12T14:02:41.996Z,16.21
2019-02-12T14:05:28.021Z,16.18
2019-02-12T14:10:50.460Z,15.89
2019-02-12T14:13:40.397Z,15.75
2019-02-12T14:16:43.654Z,15.81
2019-02-12T14:22:17.781Z,16.14
2019-02-12T14:25:15.665Z,16.36
2019-02-12T14:27:27.121Z,16.45
2019-02-12T14:30:37.285Z,16.63
2019-02-12T14:37:01.227Z,16.30
2019-02-12T14:39:45.355Z,16.47
2019-02-12T14:44:31.180Z,16.20
2019-02-12T14:47:21.368Z,15.94
2019-02-12T14:53:20.509Z,15.79
2019-02-12T14:56:01.426Z,15.87
2019-02-12T14:58:33.079Z,15.83
2019-02-12T15:04:33.316Z,16.06
2019-02-12T15:07:07.523Z,15.95
2019-02-12T15:09:58.262Z,15.72
2019-02-12T15:13:04.268Z,15.39
2019-02-12T15:15:54.057Z,15.40
2019-02-12T15:18:25.748Z,15.33
2019-02-12T15:27:11.656Z,15.43
2019-02-12T15:30:02.484Z,15.18
2019-02-12T15:35:44.642Z,15.11
2019-02-12T15:38:15.516Z,15.28
2019-02-12T15:41:06.669Z,15.27
2019-02-12T15:43:59.900Z,15.53
2019-02-12T15:47:22.279Z,15.58
2019-02-12T15:56:19.058Z,15.58
2019-02-12T15:58:53.693Z,15.48
2019-02-12T16:01:49.115Z,15.48
2019-02-12T16:08:14.272Z,15.49
2019-02-12T16:10:42.012Z,15.66
2019-02-12T16:16:21.992Z,14.92
2019-02-12T16:18:39.014Z,14.91
2019-02-12T16:21:10.741Z,14.61
2019-02-12T16:24:01.516Z,14.64
2019-02-12T16:26:51.360Z,14.95
2019-02-12T16:29:23.125Z,14.69
2019-02-12T16:31:56.971Z,14.62
2019-02-12T16:34:50.700Z,14.62
2019-02-12T16:40:46.622Z,14.34
2019-02-12T16:46:17.724Z,13.95
2019-02-12T16:48:51.412Z,14.20
2019-02-12T16:51:22.378Z,13.87
2019-02-12T16:57:05.262Z,13.89
2019-02-12T16:59:59.323Z,13.62
2019-02-12T17:03:10.961Z,13.89
2019-02-12T17:09:19.188Z,13.99
2019-02-12T17:11:58.696Z,13.78
2019-02-12T17:14:42.686Z,13.83
2019-02-12T17:17:51.910Z,13.99
2019-02-12T17:20:22.868Z,14.03
2019-02-12T17:23:12.858Z,13.90
2019-02-12T17:26:02.217Z,13.85
2019-02-12T17:28:33.520Z,13.94
2019-02-12T17:31:04.369Z,13.91
2019-02-12T17:33:53.381Z,13.66
2019-02-12T17:36:26.593Z,13.27
2019-02-12T17:39:12.453Z,13.37
2019-02-12T17:42:10.327Z,13.52
2019-02-12T17:45:08.030Z,13.41
2019-02-12T17:48:21.236Z,13.38
2019-02-12T17:57:46.516Z,13.45
2019-02-12T18:00:37.997Z,13.27
2019-02-12T18:06:26.933Z,13.54
2019-02-12T18:08:45.529Z,13.37
2019-02-12T18:11:16.455Z,13.46
2019-02-12T18:14:07.176Z,13.48
2019-02-12T18:16:38.022Z,13.63
2019-02-12T18:19:32.726Z,13.71
2019-02-12T18:22:22.608Z,13.74
2019-02-12T18:24:54.274Z,13.71
2019-02-12T18:27:44.105Z,13.94
2019-02-12T18:36:04.581Z,13.89
2019-02-12T18:38:54.337Z,14.02
2019-02-12T18:45:06.425Z,14.05
2019-02-12T18:47:37.345Z,14.11
2019-02-12T18:53:17.211Z,14.15
2019-02-12T18:56:09.244Z,14.17
2019-02-12T18:58:59.105Z,14.13
2019-02-12T19:01:50.825Z,14.00
2019-02-12T19:04:46.299Z,14.15
2019-02-12T19:07:54.059Z,14.21
2019-02-12T19:11:18.024Z,14.43
2019-02-12T19:13:55.557Z,14.28
2019-02-12T19:19:44.506Z,14.43
2019-02-12T19:25:41.921Z,14.17
2019-02-12T19:28:11.868Z,14.15
2019-02-12T19:30:59.051Z,13.99
2019-02-12T19:33:59.649Z,13.95
2019-02-12T19:36:30.528Z,13.82
2019-02-12T19:42:23.786Z,13.08
2019-02-12T19:45:03.666Z,13.12
2019-02-12T19:48:00.354Z,13.15
2019-02-12T19:54:13.854Z,12.90
2019-02-12T20:06:47.404Z,12.14
2019-02-12T20:09:52.365Z,11.85
2019-02-12T20:12:01.883Z,11.98
2019-02-12T20:18:00.799Z,11.83
2019-02-12T20:21:11.041Z,11.83
2019-02-12T20:24:19.644Z,11.73
2019-02-12T20:27:09.619Z,11.53
2019-02-12T20:30:00.334Z,11.55
2019-02-12T20:32:52.416Z,11.68
2019-02-12T20:35:58.939Z,11.68
2019-02-12T20:41:59.751Z,11.43
2019-02-12T20:44:30.559Z,11.29
2019-02-12T20:47:44.388Z,11.27
2019-02-12T20:54:06.935Z,10.90
2019-02-12T20:56:58.373Z,10.71
2019-02-12T21:00:08.179Z,10.73
2019-02-12T21:03:13.825Z,10.92
2019-02-12T21:05:54.456Z,10.86
2019-02-12T21:09:24.624Z,10.43
2019-02-12T21:12:25.033Z,10.51
2019-02-12T21:15:35.824Z,10.35
2019-02-12T21:18:54.381Z,10.56
2019-02-12T21:26:12.574Z,10.14
2019-02-12T21:32:44.100Z,10.01
2019-02-12T21:42:32.670Z,9.66
2019-02-12T21:49:46.599Z,9.77
2019-02-12T21:56:22.604Z,9.71
2019-02-12T22:05:47.343Z,9.52
2019-02-12T22:15:44.226Z,9.42
2019-02-12T22:18:56.996Z,9.43
2019-02-12T22:29:20.051Z,9.47
2019-02-12T22:35:05.081Z,9.31
2019-02-12T22:38:36.336Z,9.32
2019-02-12T22:45:27.720Z,9.39
2019-02-12T22:51:04.347Z,9.59
2019-02-12T22:54:01.935Z,9.67
2019-02-12T22:57:15.038Z,9.52
2019-02-12T23:05:44.898Z,9.30
2019-02-12T23:08:53.101Z,9.44
2019-02-12T23:15:13.409Z,9.37
2019-02-12T23:18:00.089Z,9.46
2019-02-12T23:21:21.818Z,9.45
2019-02-12T23:24:12.403Z,9.44
2019-02-12T23:30:16.744Z,9.65
2019-02-12T23:33:15.486Z,9.60
2019-02-12T23:35:49.267Z,9.35
2019-02-12T23:38:38.641Z,9.79
2019-02-12T23:41:09.784Z,9.82
2019-02-12T23:43:59.797Z,9.80
2019-02-12T23:46:32.486Z,9.70
2019-02-12T23:49:23.417Z,9.50
2019-02-12T23:51:54.556Z,9.50
2019-02-12T23:54:45.289Z,9.39
2019-02-12T23:57:22.196Z,9.30
